sensor_id;sensor_type;location;lat;lon;timestamp;pressure;altitude;pressure_sealevel;temperature;humidity
42669;BME280;29384;42.028;21.388;2022-08-26T00:01:41;98070.38;;;22.88;87.78
42669;BME280;29384;42.028;21.388;2022-08-26T00:04:08;98070.84;;;22.90;87.77
42669;BME280;29384;42.028;21.388;2022-08-26T00:06:34;98067.72;;;22.88;87.92
42669;BME280;29384;42.028;21.388;2022-08-26T00:09:00;98066.59;;;22.89;87.24
42669;BME280;29384;42.028;21.388;2022-08-26T00:11:26;98067.03;;;22.91;86.97
42669;BME280;29384;42.028;21.388;2022-08-26T00:13:53;98065.06;;;22.88;87.12
42669;BME280;29384;42.028;21.388;2022-08-26T00:16:20;98067.63;;;22.85;88.17
42669;BME280;29384;42.028;21.388;2022-08-26T00:22:07;98059.88;;;22.80;87.75
42669;BME280;29384;42.028;21.388;2022-08-26T00:24:32;98061.41;;;22.81;87.72
42669;BME280;29384;42.028;21.388;2022-08-26T00:26:58;98069.31;;;22.77;87.99
42669;BME280;29384;42.028;21.388;2022-08-26T00:29:23;98071.50;;;22.75;87.75
42669;BME280;29384;42.028;21.388;2022-08-26T00:31:49;98066.88;;;22.72;88.12
42669;BME280;29384;42.028;21.388;2022-08-26T00:34:15;98055.00;;;22.57;88.89
42669;BME280;29384;42.028;21.388;2022-08-26T00:36:41;98064.69;;;22.62;88.26
42669;BME280;29384;42.028;21.388;2022-08-26T00:39:07;98059.25;;;22.58;88.78
42669;BME280;29384;42.028;21.388;2022-08-26T00:41:34;98060.88;;;22.63;88.08
42669;BME280;29384;42.028;21.388;2022-08-26T00:44:00;98061.56;;;22.60;88.36
42669;BME280;29384;42.028;21.388;2022-08-26T00:46:28;98060.31;;;22.57;88.65
42669;BME280;29384;42.028;21.388;2022-08-26T00:52:19;98062.78;;;22.50;88.72
42669;BME280;29384;42.028;21.388;2022-08-26T00:54:54;98051.91;;;22.43;88.95
42669;BME280;29384;42.028;21.388;2022-08-26T00:57:23;98057.91;;;22.40;89.38
42669;BME280;29384;42.028;21.388;2022-08-26T00:59:56;98055.13;;;22.36;89.40
42669;BME280;29384;42.028;21.388;2022-08-26T01:02:23;98064.78;;;22.29;89.76
42669;BME280;29384;42.028;21.388;2022-08-26T01:04:52;98065.44;;;22.13;91.31
42669;BME280;29384;42.028;21.388;2022-08-26T01:07:18;98067.00;;;22.14;91.02
42669;BME280;29384;42.028;21.388;2022-08-26T01:09:45;98072.97;;;22.11;90.79
42669;BME280;29384;42.028;21.388;2022-08-26T01:12:10;98074.19;;;22.14;90.44
42669;BME280;29384;42.028;21.388;2022-08-26T01:14:36;98061.44;;;22.07;91.00
42669;BME280;29384;42.028;21.388;2022-08-26T01:17:06;98062.75;;;22.01;91.26
42669;BME280;29384;42.028;21.388;2022-08-26T01:19:40;98068.41;;;22.00;90.58
42669;BME280;29384;42.028;21.388;2022-08-26T01:22:16;98063.31;;;21.94;90.83
42669;BME280;29384;42.028;21.388;2022-08-26T01:24:44;98067.97;;;21.98;90.79
42669;BME280;29384;42.028;21.388;2022-08-26T01:27:12;98059.75;;;21.90;91.30
42669;BME280;29384;42.028;21.388;2022-08-26T01:29:41;98064.63;;;21.88;90.60
42669;BME280;29384;42.028;21.388;2022-08-26T01:32:09;98078.59;;;21.85;91.41
42669;BME280;29384;42.028;21.388;2022-08-26T01:34:37;98072.72;;;21.80;91.97
42669;BME280;29384;42.028;21.388;2022-08-26T01:37:09;98067.91;;;21.73;92.68
42669;BME280;29384;42.028;21.388;2022-08-26T01:39:38;98070.69;;;21.64;93.23
42669;BME280;29384;42.028;21.388;2022-08-26T01:42:06;98071.03;;;21.63;93.62
42669;BME280;29384;42.028;21.388;2022-08-26T01:44:35;98073.88;;;21.58;93.88
42669;BME280;29384;42.028;21.388;2022-08-26T01:47:05;98083.41;;;21.59;94.48
42669;BME280;29384;42.028;21.388;2022-08-26T01:49:32;98077.84;;;21.52;94.81
42669;BME280;29384;42.028;21.388;2022-08-26T01:52:02;98079.31;;;21.61;95.02
42669;BME280;29384;42.028;21.388;2022-08-26T01:54:28;98080.09;;;21.62;94.39
42669;BME280;29384;42.028;21.388;2022-08-26T01:56:53;98071.91;;;21.67;93.93
42669;BME280;29384;42.028;21.388;2022-08-26T01:59:21;98076.53;;;21.58;93.82
42669;BME280;29384;42.028;21.388;2022-08-26T02:01:48;98078.66;;;21.52;94.41
42669;BME280;29384;42.028;21.388;2022-08-26T02:07:36;98063.47;;;21.53;94.74
42669;BME280;29384;42.028;21.388;2022-08-26T02:10:03;98065.47;;;21.56;95.20
42669;BME280;29384;42.028;21.388;2022-08-26T02:12:29;98071.34;;;21.61;95.82
42669;BME280;29384;42.028;21.388;2022-08-26T02:14:58;98068.25;;;21.59;95.16
42669;BME280;29384;42.028;21.388;2022-08-26T02:17:29;98068.56;;;21.58;94.72
42669;BME280;29384;42.028;21.388;2022-08-26T02:19:58;98072.75;;;21.46;94.54
42669;BME280;29384;42.028;21.388;2022-08-26T02:22:23;98073.97;;;21.49;94.09
42669;BME280;29384;42.028;21.388;2022-08-26T02:27:38;98060.34;;;21.30;97.17
42669;BME280;29384;42.028;21.388;2022-08-26T02:30:19;98072.22;;;21.32;96.85
42669;BME280;29384;42.028;21.388;2022-08-26T02:32:45;98068.59;;;21.37;96.75
42669;BME280;29384;42.028;21.388;2022-08-26T02:35:13;98068.53;;;21.45;96.43
42669;BME280;29384;42.028;21.388;2022-08-26T02:37:39;98062.75;;;21.43;96.08
42669;BME280;29384;42.028;21.388;2022-08-26T02:40:06;98062.31;;;21.41;96.32
42669;BME280;29384;42.028;21.388;2022-08-26T02:42:32;98056.06;;;21.37;96.06
42669;BME280;29384;42.028;21.388;2022-08-26T02:44:58;98057.78;;;21.42;95.28
42669;BME280;29384;42.028;21.388;2022-08-26T02:47:24;98055.56;;;21.44;94.99
42669;BME280;29384;42.028;21.388;2022-08-26T02:49:50;98061.28;;;21.34;95.17
42669;BME280;29384;42.028;21.388;2022-08-26T02:52:17;98059.56;;;21.29;95.30
42669;BME280;29384;42.028;21.388;2022-08-26T02:54:42;98061.00;;;21.27;94.92
42669;BME280;29384;42.028;21.388;2022-08-26T02:57:09;98062.75;;;21.22;95.04
42669;BME280;29384;42.028;21.388;2022-08-26T02:59:34;98062.31;;;21.20;94.90
42669;BME280;29384;42.028;21.388;2022-08-26T03:02:00;98062.38;;;21.12;95.19
42669;BME280;29384;42.028;21.388;2022-08-26T03:07:48;98058.69;;;21.04;95.33
42669;BME280;29384;42.028;21.388;2022-08-26T03:10:14;98063.38;;;21.07;95.22
42669;BME280;29384;42.028;21.388;2022-08-26T03:12:41;98060.59;;;21.04;95.09
42669;BME280;29384;42.028;21.388;2022-08-26T03:15:07;98058.91;;;20.99;95.26
42669;BME280;29384;42.028;21.388;2022-08-26T03:17:33;98050.34;;;20.93;95.25
42669;BME280;29384;42.028;21.388;2022-08-26T03:19:59;98055.53;;;20.90;95.30
42669;BME280;29384;42.028;21.388;2022-08-26T03:22:25;98059.97;;;20.98;94.62
42669;BME280;29384;42.028;21.388;2022-08-26T03:24:51;98055.56;;;21.02;94.41
42669;BME280;29384;42.028;21.388;2022-08-26T03:27:17;98052.13;;;21.01;94.37
42669;BME280;29384;42.028;21.388;2022-08-26T03:29:42;98051.84;;;21.03;94.47
42669;BME280;29384;42.028;21.388;2022-08-26T03:32:26;98057.47;;;21.01;94.65
42669;BME280;29384;42.028;21.388;2022-08-26T03:34:52;98055.53;;;20.90;95.05
42669;BME280;29384;42.028;21.388;2022-08-26T03:37:18;98053.19;;;20.88;96.00
42669;BME280;29384;42.028;21.388;2022-08-26T03:39:46;98058.56;;;20.80;96.29
42669;BME280;29384;42.028;21.388;2022-08-26T03:42:11;98062.19;;;20.75;96.69
42669;BME280;29384;42.028;21.388;2022-08-26T03:44:37;98055.97;;;20.71;97.34
42669;BME280;29384;42.028;21.388;2022-08-26T03:47:02;98056.41;;;20.73;97.27
42669;BME280;29384;42.028;21.388;2022-08-26T03:52:53;98055.63;;;20.51;98.29
42669;BME280;29384;42.028;21.388;2022-08-26T03:55:22;98063.59;;;20.51;98.59
42669;BME280;29384;42.028;21.388;2022-08-26T03:57:47;98060.75;;;20.57;98.72
42669;BME280;29384;42.028;21.388;2022-08-26T04:00:15;98063.41;;;20.57;98.57
42669;BME280;29384;42.028;21.388;2022-08-26T04:02:45;98057.81;;;20.49;98.68
42669;BME280;29384;42.028;21.388;2022-08-26T04:05:15;98056.88;;;20.54;98.86
42669;BME280;29384;42.028;21.388;2022-08-26T04:07:42;98059.97;;;20.56;99.19
42669;BME280;29384;42.028;21.388;2022-08-26T04:10:12;98059.00;;;20.61;98.53
42669;BME280;29384;42.028;21.388;2022-08-26T04:12:39;98063.47;;;20.69;98.02
42669;BME280;29384;42.028;21.388;2022-08-26T04:15:07;98072.19;;;20.78;97.19
42669;BME280;29384;42.028;21.388;2022-08-26T04:17:33;98069.06;;;20.76;97.96
42669;BME280;29384;42.028;21.388;2022-08-26T04:23:20;98067.06;;;20.94;96.52
42669;BME280;29384;42.028;21.388;2022-08-26T04:25:46;98067.56;;;20.87;96.67
42669;BME280;29384;42.028;21.388;2022-08-26T04:28:11;98065.03;;;20.91;96.64
42669;BME280;29384;42.028;21.388;2022-08-26T04:30:39;98062.22;;;20.96;96.67
42669;BME280;29384;42.028;21.388;2022-08-26T04:33:05;98066.22;;;21.02;95.33
42669;BME280;29384;42.028;21.388;2022-08-26T04:35:32;98072.56;;;21.10;94.18
42669;BME280;29384;42.028;21.388;2022-08-26T04:37:58;98072.84;;;21.17;94.73
42669;BME280;29384;42.028;21.388;2022-08-26T04:40:24;98070.97;;;21.30;94.27
42669;BME280;29384;42.028;21.388;2022-08-26T04:42:52;98075.28;;;21.43;92.65
42669;BME280;29384;42.028;21.388;2022-08-26T04:45:17;98077.41;;;21.50;92.50
42669;BME280;29384;42.028;21.388;2022-08-26T04:47:43;98082.63;;;21.58;91.77
42669;BME280;29384;42.028;21.388;2022-08-26T04:53:30;98079.97;;;21.91;89.38
42669;BME280;29384;42.028;21.388;2022-08-26T04:55:56;98079.97;;;22.04;88.95
42669;BME280;29384;42.028;21.388;2022-08-26T04:58:23;98082.44;;;22.21;88.17
42669;BME280;29384;42.028;21.388;2022-08-26T05:00:51;98083.34;;;22.37;87.22
42669;BME280;29384;42.028;21.388;2022-08-26T05:03:17;98090.19;;;22.51;86.50
42669;BME280;29384;42.028;21.388;2022-08-26T05:05:45;98088.09;;;22.56;85.26
42669;BME280;29384;42.028;21.388;2022-08-26T05:08:13;98093.44;;;22.69;84.97
42669;BME280;29384;42.028;21.388;2022-08-26T05:10:41;98093.97;;;22.74;85.14
42669;BME280;29384;42.028;21.388;2022-08-26T05:13:07;98091.75;;;22.76;84.74
42669;BME280;29384;42.028;21.388;2022-08-26T05:15:34;98091.28;;;22.86;83.74
42669;BME280;29384;42.028;21.388;2022-08-26T05:18:02;98086.97;;;22.94;83.72
42669;BME280;29384;42.028;21.388;2022-08-26T05:20:28;98091.13;;;23.07;82.99
42669;BME280;29384;42.028;21.388;2022-08-26T05:22:54;98089.19;;;23.20;82.11
42669;BME280;29384;42.028;21.388;2022-08-26T05:25:19;98075.84;;;23.32;82.04
42669;BME280;29384;42.028;21.388;2022-08-26T05:27:45;98087.75;;;23.51;81.34
42669;BME280;29384;42.028;21.388;2022-08-26T05:30:11;98083.91;;;23.64;80.44
42669;BME280;29384;42.028;21.388;2022-08-26T05:32:36;98082.81;;;23.81;80.13
42669;BME280;29384;42.028;21.388;2022-08-26T05:38:23;98070.88;;;24.06;79.19
42669;BME280;29384;42.028;21.388;2022-08-26T05:40:50;98079.72;;;24.26;78.91
42669;BME280;29384;42.028;21.388;2022-08-26T05:43:17;98079.47;;;24.31;78.38
42669;BME280;29384;42.028;21.388;2022-08-26T05:45:45;98075.19;;;24.43;77.83
42669;BME280;29384;42.028;21.388;2022-08-26T05:48:11;98072.22;;;24.48;77.25
42669;BME280;29384;42.028;21.388;2022-08-26T05:50:43;98076.06;;;24.66;77.39
42669;BME280;29384;42.028;21.388;2022-08-26T05:53:11;98073.41;;;24.86;76.30
42669;BME280;29384;42.028;21.388;2022-08-26T05:55:48;98080.50;;;25.13;75.22
42669;BME280;29384;42.028;21.388;2022-08-26T05:58:15;98079.38;;;25.34;75.35
42669;BME280;29384;42.028;21.388;2022-08-26T06:00:41;98079.66;;;25.48;73.31
42669;BME280;29384;42.028;21.388;2022-08-26T06:03:07;98079.47;;;25.60;73.43
42669;BME280;29384;42.028;21.388;2022-08-26T06:05:40;98082.16;;;25.80;72.59
42669;BME280;29384;42.028;21.388;2022-08-26T06:08:06;98079.78;;;25.97;71.20
42669;BME280;29384;42.028;21.388;2022-08-26T06:10:54;98085.31;;;26.08;70.46
42669;BME280;29384;42.028;21.388;2022-08-26T06:13:23;98073.06;;;26.11;70.19
42669;BME280;29384;42.028;21.388;2022-08-26T06:15:50;98076.88;;;26.33;70.26
42669;BME280;29384;42.028;21.388;2022-08-26T06:18:19;98080.56;;;26.48;69.52
42669;BME280;29384;42.028;21.388;2022-08-26T06:20:46;98077.09;;;26.47;69.21
42669;BME280;29384;42.028;21.388;2022-08-26T06:23:14;98078.78;;;26.59;68.09
42669;BME280;29384;42.028;21.388;2022-08-26T06:25:59;98075.84;;;26.67;68.69
42669;BME280;29384;42.028;21.388;2022-08-26T06:28:25;98081.44;;;26.85;68.22
42669;BME280;29384;42.028;21.388;2022-08-26T06:30:51;98077.16;;;26.81;67.30
42669;BME280;29384;42.028;21.388;2022-08-26T06:33:17;98083.84;;;26.94;66.60
42669;BME280;29384;42.028;21.388;2022-08-26T06:35:43;98083.94;;;27.01;66.84
42669;BME280;29384;42.028;21.388;2022-08-26T06:38:11;98088.59;;;27.04;65.55
42669;BME280;29384;42.028;21.388;2022-08-26T06:40:50;98079.91;;;27.14;65.41
42669;BME280;29384;42.028;21.388;2022-08-26T06:43:21;98081.53;;;27.23;64.90
42669;BME280;29384;42.028;21.388;2022-08-26T06:45:48;98085.38;;;27.22;65.37
42669;BME280;29384;42.028;21.388;2022-08-26T06:48:16;98075.19;;;27.38;65.69
42669;BME280;29384;42.028;21.388;2022-08-26T06:54:23;98080.63;;;27.82;63.32
42669;BME280;29384;42.028;21.388;2022-08-26T06:56:48;98079.63;;;28.01;63.77
42669;BME280;29384;42.028;21.388;2022-08-26T06:59:14;98073.81;;;27.92;62.74
42669;BME280;29384;42.028;21.388;2022-08-26T07:01:42;98082.81;;;28.14;63.09
42669;BME280;29384;42.028;21.388;2022-08-26T07:04:12;98079.88;;;28.37;63.11
42669;BME280;29384;42.028;21.388;2022-08-26T07:06:39;98068.13;;;28.52;62.41
42669;BME280;29384;42.028;21.388;2022-08-26T07:09:07;98083.94;;;28.65;59.76
42669;BME280;29384;42.028;21.388;2022-08-26T07:11:34;98065.88;;;28.69;60.25
42669;BME280;29384;42.028;21.388;2022-08-26T07:14:00;98077.13;;;28.85;59.39
42669;BME280;29384;42.028;21.388;2022-08-26T07:16:26;98064.44;;;28.89;59.12
42669;BME280;29384;42.028;21.388;2022-08-26T07:18:52;98076.84;;;29.04;59.12
42669;BME280;29384;42.028;21.388;2022-08-26T07:21:19;98073.09;;;29.27;56.68
42669;BME280;29384;42.028;21.388;2022-08-26T07:23:45;98075.81;;;29.41;55.41
42669;BME280;29384;42.028;21.388;2022-08-26T07:26:15;98075.81;;;29.48;53.48
42669;BME280;29384;42.028;21.388;2022-08-26T07:28:46;98072.75;;;29.53;53.52
42669;BME280;29384;42.028;21.388;2022-08-26T07:31:14;98068.91;;;29.51;52.94
42669;BME280;29384;42.028;21.388;2022-08-26T07:33:40;98070.09;;;29.64;53.90
42669;BME280;29384;42.028;21.388;2022-08-26T07:36:07;98068.97;;;29.72;53.34
42669;BME280;29384;42.028;21.388;2022-08-26T07:38:34;98068.97;;;29.83;52.30
42669;BME280;29384;42.028;21.388;2022-08-26T07:41:01;98062.44;;;29.91;54.55
42669;BME280;29384;42.028;21.388;2022-08-26T07:43:27;98074.38;;;29.97;52.83
42669;BME280;29384;42.028;21.388;2022-08-26T07:45:53;98059.31;;;30.04;52.91
42669;BME280;29384;42.028;21.388;2022-08-26T07:48:19;98062.03;;;30.00;52.49
42669;BME280;29384;42.028;21.388;2022-08-26T07:54:06;98054.34;;;30.20;52.99
42669;BME280;29384;42.028;21.388;2022-08-26T07:56:31;98056.66;;;30.21;52.51
42669;BME280;29384;42.028;21.388;2022-08-26T07:58:57;98057.41;;;30.36;52.11
42669;BME280;29384;42.028;21.388;2022-08-26T08:01:24;98057.41;;;30.43;50.12
42669;BME280;29384;42.028;21.388;2022-08-26T08:03:52;98051.22;;;30.46;50.61
42669;BME280;29384;42.028;21.388;2022-08-26T08:06:19;98044.66;;;30.51;52.95
42669;BME280;29384;42.028;21.388;2022-08-26T08:08:45;98044.66;;;30.47;51.62
42669;BME280;29384;42.028;21.388;2022-08-26T08:11:10;98037.38;;;30.37;51.39
42669;BME280;29384;42.028;21.388;2022-08-26T08:13:37;98042.38;;;30.07;50.81
42669;BME280;29384;42.028;21.388;2022-08-26T08:16:03;98033.50;;;30.17;51.90
42669;BME280;29384;42.028;21.388;2022-08-26T08:18:29;98036.63;;;30.19;52.50
42669;BME280;29384;42.028;21.388;2022-08-26T08:24:16;98030.78;;;30.45;50.43
42669;BME280;29384;42.028;21.388;2022-08-26T08:26:41;98038.16;;;30.27;49.62
42669;BME280;29384;42.028;21.388;2022-08-26T08:29:07;98042.75;;;30.41;51.06
42669;BME280;29384;42.028;21.388;2022-08-26T08:31:33;98033.44;;;30.60;51.27
42669;BME280;29384;42.028;21.388;2022-08-26T08:33:59;98037.25;;;30.73;48.87
42669;BME280;29384;42.028;21.388;2022-08-26T08:36:25;98030.66;;;30.85;49.23
42669;BME280;29384;42.028;21.388;2022-08-26T08:38:50;98021.84;;;30.77;50.36
42669;BME280;29384;42.028;21.388;2022-08-26T08:44:15;98016.56;;;30.31;48.45
42669;BME280;29384;42.028;21.388;2022-08-26T08:46:44;98008.06;;;30.50;52.28
42669;BME280;29384;42.028;21.388;2022-08-26T08:49:12;98010.25;;;30.73;50.25
42669;BME280;29384;42.028;21.388;2022-08-26T08:51:52;98013.34;;;30.82;50.53
42669;BME280;29384;42.028;21.388;2022-08-26T08:54:19;98019.47;;;30.93;50.94
42669;BME280;29384;42.028;21.388;2022-08-26T08:57:11;98013.38;;;30.71;49.38
42669;BME280;29384;42.028;21.388;2022-08-26T08:59:54;98015.66;;;30.84;50.17
42669;BME280;29384;42.028;21.388;2022-08-26T09:02:47;98016.09;;;30.75;45.66
42669;BME280;29384;42.028;21.388;2022-08-26T09:05:33;98006.72;;;30.94;50.54
42669;BME280;29384;42.028;21.388;2022-08-26T09:08:07;98003.56;;;31.10;49.38
42669;BME280;29384;42.028;21.388;2022-08-26T09:10:40;98003.84;;;31.26;47.91
42669;BME280;29384;42.028;21.388;2022-08-26T09:13:10;98003.41;;;31.38;49.30
42669;BME280;29384;42.028;21.388;2022-08-26T09:21:12;97993.09;;;31.15;46.36
42669;BME280;29384;42.028;21.388;2022-08-26T09:23:40;97989.25;;;31.13;46.64
42669;BME280;29384;42.028;21.388;2022-08-26T09:31:46;97971.59;;;31.01;48.81
42669;BME280;29384;42.028;21.388;2022-08-26T09:37:59;97984.47;;;31.46;47.27
42669;BME280;29384;42.028;21.388;2022-08-26T09:40:27;97985.13;;;31.57;47.00
42669;BME280;29384;42.028;21.388;2022-08-26T09:43:19;97989.00;;;31.56;43.89
42669;BME280;29384;42.028;21.388;2022-08-26T09:45:47;97988.19;;;31.59;44.76
42669;BME280;29384;42.028;21.388;2022-08-26T09:54:25;97964.94;;;31.13;43.26
42669;BME280;29384;42.028;21.388;2022-08-26T09:56:52;97973.88;;;31.10;43.28
42669;BME280;29384;42.028;21.388;2022-08-26T09:59:34;97970.66;;;31.33;46.31
42669;BME280;29384;42.028;21.388;2022-08-26T10:02:34;97973.41;;;31.22;42.05
42669;BME280;29384;42.028;21.388;2022-08-26T10:05:06;97966.44;;;31.25;44.64
42669;BME280;29384;42.028;21.388;2022-08-26T10:07:52;97963.59;;;31.46;45.26
42669;BME280;29384;42.028;21.388;2022-08-26T10:10:25;97958.06;;;31.64;47.65
42669;BME280;29384;42.028;21.388;2022-08-26T10:15:17;97966.38;;;31.80;45.18
42669;BME280;29384;42.028;21.388;2022-08-26T10:18:17;97955.56;;;31.80;44.07
42669;BME280;29384;42.028;21.388;2022-08-26T10:20:54;97967.28;;;31.70;40.52
42669;BME280;29384;42.028;21.388;2022-08-26T10:23:26;97962.78;;;31.53;41.50
42669;BME280;29384;42.028;21.388;2022-08-26T10:25:57;97952.06;;;31.42;42.91
42669;BME280;29384;42.028;21.388;2022-08-26T10:28:40;97961.25;;;31.48;40.28
42669;BME280;29384;42.028;21.388;2022-08-26T10:33:55;97951.28;;;31.45;42.08
42669;BME280;29384;42.028;21.388;2022-08-26T10:36:22;97941.91;;;31.57;42.61
42669;BME280;29384;42.028;21.388;2022-08-26T10:39:15;97948.81;;;31.58;41.28
42669;BME280;29384;42.028;21.388;2022-08-26T10:41:46;97948.81;;;31.58;39.73
42669;BME280;29384;42.028;21.388;2022-08-26T10:44:16;97944.97;;;31.55;38.01
42669;BME280;29384;42.028;21.388;2022-08-26T10:46:53;97948.00;;;31.64;37.89
42669;BME280;29384;42.028;21.388;2022-08-26T10:49:21;97946.75;;;31.73;38.54
42669;BME280;29384;42.028;21.388;2022-08-26T10:51:55;97948.69;;;31.72;40.81
42669;BME280;29384;42.028;21.388;2022-08-26T10:57:21;97938.94;;;31.85;41.02
42669;BME280;29384;42.028;21.388;2022-08-26T11:02:31;97929.44;;;32.08;38.95
42669;BME280;29384;42.028;21.388;2022-08-26T11:10:56;97921.25;;;31.29;39.68
42669;BME280;29384;42.028;21.388;2022-08-26T11:14:00;97924.53;;;31.02;39.12
42669;BME280;29384;42.028;21.388;2022-08-26T11:16:46;97926.47;;;31.02;38.82
42669;BME280;29384;42.028;21.388;2022-08-26T11:28:47;97923.41;;;31.52;35.02
42669;BME280;29384;42.028;21.388;2022-08-26T11:33:58;97911.28;;;31.71;38.95
42669;BME280;29384;42.028;21.388;2022-08-26T11:39:24;97907.50;;;32.02;40.17
42669;BME280;29384;42.028;21.388;2022-08-26T11:41:55;97903.16;;;32.08;38.23
42669;BME280;29384;42.028;21.388;2022-08-26T11:44:27;97895.75;;;32.16;38.64
42669;BME280;29384;42.028;21.388;2022-08-26T11:47:00;97889.47;;;32.26;39.72
42669;BME280;29384;42.028;21.388;2022-08-26T11:49:27;97890.88;;;32.34;39.33
42669;BME280;29384;42.028;21.388;2022-08-26T11:54:36;97898.53;;;32.43;37.56
42669;BME280;29384;42.028;21.388;2022-08-26T11:57:04;97891.53;;;32.46;38.87
42669;BME280;29384;42.028;21.388;2022-08-26T11:59:34;97890.81;;;32.42;37.34
42669;BME280;29384;42.028;21.388;2022-08-26T12:02:04;97875.78;;;32.37;36.32
42669;BME280;29384;42.028;21.388;2022-08-26T12:04:37;97879.66;;;32.36;39.11
42669;BME280;29384;42.028;21.388;2022-08-26T12:07:05;97879.25;;;32.41;38.22
42669;BME280;29384;42.028;21.388;2022-08-26T12:09:35;97882.25;;;32.47;37.36
42669;BME280;29384;42.028;21.388;2022-08-26T12:12:16;97885.31;;;32.49;34.29
42669;BME280;29384;42.028;21.388;2022-08-26T12:14:43;97869.53;;;32.44;36.64
42669;BME280;29384;42.028;21.388;2022-08-26T12:17:16;97868.41;;;32.41;35.56
42669;BME280;29384;42.028;21.388;2022-08-26T12:19:42;97863.00;;;32.41;36.63
42669;BME280;29384;42.028;21.388;2022-08-26T12:22:23;97862.66;;;32.35;35.97
42669;BME280;29384;42.028;21.388;2022-08-26T12:25:02;97852.25;;;32.34;35.51
42669;BME280;29384;42.028;21.388;2022-08-26T12:27:32;97844.63;;;32.25;36.69
42669;BME280;29384;42.028;21.388;2022-08-26T12:32:44;97841.56;;;32.23;37.68
42669;BME280;29384;42.028;21.388;2022-08-26T12:38:34;97832.69;;;31.92;33.92
42669;BME280;29384;42.028;21.388;2022-08-26T12:41:00;97850.13;;;31.87;34.80
42669;BME280;29384;42.028;21.388;2022-08-26T12:43:38;97851.44;;;31.69;32.91
42669;BME280;29384;42.028;21.388;2022-08-26T12:46:05;97849.94;;;31.64;33.31
42669;BME280;29384;42.028;21.388;2022-08-26T12:48:34;97849.25;;;31.56;32.04
42669;BME280;29384;42.028;21.388;2022-08-26T12:54:21;97843.25;;;31.38;33.35
42669;BME280;29384;42.028;21.388;2022-08-26T12:57:09;97841.75;;;31.30;32.67
42669;BME280;29384;42.028;21.388;2022-08-26T12:59:35;97839.47;;;31.32;34.14
42669;BME280;29384;42.028;21.388;2022-08-26T13:02:00;97837.06;;;31.37;33.89
42669;BME280;29384;42.028;21.388;2022-08-26T13:04:41;97837.00;;;31.45;31.66
42669;BME280;29384;42.028;21.388;2022-08-26T13:10:34;97820.69;;;31.55;34.75
42669;BME280;29384;42.028;21.388;2022-08-26T13:13:00;97816.75;;;31.63;35.37
42669;BME280;29384;42.028;21.388;2022-08-26T13:15:25;97812.75;;;31.75;36.21
42669;BME280;29384;42.028;21.388;2022-08-26T13:17:51;97818.50;;;31.81;33.83
42669;BME280;29384;42.028;21.388;2022-08-26T13:20:17;97816.50;;;31.85;33.37
42669;BME280;29384;42.028;21.388;2022-08-26T13:22:42;97809.56;;;31.84;31.86
42669;BME280;29384;42.028;21.388;2022-08-26T13:25:08;97814.19;;;31.83;33.34
42669;BME280;29384;42.028;21.388;2022-08-26T13:27:33;97801.06;;;31.85;35.50
42669;BME280;29384;42.028;21.388;2022-08-26T13:29:59;97809.56;;;31.87;35.73
42669;BME280;29384;42.028;21.388;2022-08-26T13:32:25;97812.63;;;31.89;34.92
42669;BME280;29384;42.028;21.388;2022-08-26T13:34:52;97808.38;;;31.88;35.72
42669;BME280;29384;42.028;21.388;2022-08-26T13:40:41;97805.69;;;31.88;35.33
42669;BME280;29384;42.028;21.388;2022-08-26T13:43:08;97805.69;;;31.88;35.85
42669;BME280;29384;42.028;21.388;2022-08-26T13:45:35;97807.34;;;31.75;31.51
42669;BME280;29384;42.028;21.388;2022-08-26T13:48:01;97792.00;;;31.65;34.91
42669;BME280;29384;42.028;21.388;2022-08-26T13:50:26;97793.75;;;31.48;34.46
42669;BME280;29384;42.028;21.388;2022-08-26T13:52:52;97790.75;;;31.39;34.91
42669;BME280;29384;42.028;21.388;2022-08-26T13:55:17;97781.53;;;31.36;35.54
42669;BME280;29384;42.028;21.388;2022-08-26T13:57:43;97796.50;;;31.41;36.03
42669;BME280;29384;42.028;21.388;2022-08-26T14:00:09;97793.84;;;31.37;35.27
42669;BME280;29384;42.028;21.388;2022-08-26T14:02:35;97790.81;;;31.35;34.77
42669;BME280;29384;42.028;21.388;2022-08-26T14:05:02;97795.41;;;31.38;34.92
42669;BME280;29384;42.028;21.388;2022-08-26T14:10:49;97780.72;;;31.39;36.43
42669;BME280;29384;42.028;21.388;2022-08-26T14:13:15;97782.22;;;31.44;35.63
42669;BME280;29384;42.028;21.388;2022-08-26T14:15:40;97789.53;;;31.43;35.74
42669;BME280;29384;42.028;21.388;2022-08-26T14:18:08;97791.81;;;31.49;34.42
42669;BME280;29384;42.028;21.388;2022-08-26T14:20:35;97794.53;;;31.49;35.94
42669;BME280;29384;42.028;21.388;2022-08-26T14:23:01;97794.16;;;31.47;35.58
42669;BME280;29384;42.028;21.388;2022-08-26T14:25:27;97784.53;;;31.46;34.96
42669;BME280;29384;42.028;21.388;2022-08-26T14:27:53;97782.22;;;31.44;34.38
42669;BME280;29384;42.028;21.388;2022-08-26T14:30:19;97777.25;;;31.39;35.41
42669;BME280;29384;42.028;21.388;2022-08-26T14:32:51;97780.59;;;31.50;34.01
42669;BME280;29384;42.028;21.388;2022-08-26T14:35:20;97770.63;;;31.43;34.77
42669;BME280;29384;42.028;21.388;2022-08-26T14:41:08;97789.78;;;31.60;31.90
42669;BME280;29384;42.028;21.388;2022-08-26T14:43:34;97796.00;;;31.53;31.90
42669;BME280;29384;42.028;21.388;2022-08-26T14:46:00;97793.75;;;31.48;32.54
42669;BME280;29384;42.028;21.388;2022-08-26T14:48:26;97791.53;;;31.39;31.33
42669;BME280;29384;42.028;21.388;2022-08-26T14:50:52;97789.25;;;31.34;31.90
42669;BME280;29384;42.028;21.388;2022-08-26T14:53:17;97786.97;;;31.33;30.46
42669;BME280;29384;42.028;21.388;2022-08-26T14:56:01;97791.59;;;31.32;31.01
42669;BME280;29384;42.028;21.388;2022-08-26T14:58:27;97778.84;;;31.29;31.33
42669;BME280;29384;42.028;21.388;2022-08-26T15:00:53;97775.34;;;31.36;30.07